createdAt,value
2019-02-22T00:01:36.978Z,17.26
2019-02-22T00:04:05.261Z,17.18
2019-02-22T00:06:33.533Z,17.53
2019-02-22T00:09:01.804Z,17.67
2019-02-22T00:11:30.155Z,16.86
2019-02-22T00:13:58.415Z,17.02
2019-02-22T00:16:26.697Z,16.89
2019-02-22T00:18:54.962Z,16.41
2019-02-22T00:21:24.320Z,16.94
2019-02-22T00:23:52.597Z,17.17
2019-02-22T00:26:20.880Z,17.07
2019-02-22T00:28:49.161Z,17.14
2019-02-22T00:31:17.441Z,16.84
2019-02-22T00:33:45.736Z,16.85
2019-02-22T00:36:14.200Z,16.92
2019-02-22T00:38:42.483Z,17.70
2019-02-22T00:41:10.755Z,16.89
2019-02-22T00:43:39.034Z,17.17
2019-02-22T00:46:07.308Z,17.90
2019-02-22T00:48:35.581Z,17.70
2019-02-22T00:51:03.875Z,17.78
2019-02-22T00:53:32.144Z,17.70
2019-02-22T00:56:00.417Z,17.74
2019-02-22T00:58:28.710Z,17.48
2019-02-22T01:00:56.992Z,18.05
2019-02-22T01:03:25.255Z,17.58
2019-02-22T01:05:53.535Z,16.70
2019-02-22T01:08:21.817Z,17.00
2019-02-22T01:10:50.139Z,16.98
2019-02-22T01:13:18.398Z,17.10
2019-02-22T01:15:46.719Z,17.08
2019-02-22T01:18:14.984Z,17.86
2019-02-22T01:20:53.754Z,18.34
2019-02-22T01:23:13.267Z,17.38
2019-02-22T01:25:41.546Z,17.96
2019-02-22T01:28:09.831Z,17.36
2019-02-22T01:30:38.111Z,16.96
2019-02-22T01:33:06.398Z,17.41
2019-02-22T01:35:34.715Z,17.82
2019-02-22T01:38:03.004Z,18.13
2019-02-22T01:40:42.672Z,18.01
2019-02-22T01:43:01.361Z,17.64
2019-02-22T01:45:29.650Z,17.23
2019-02-22T01:47:57.930Z,17.22
2019-02-22T01:50:26.290Z,17.12
2019-02-22T01:52:54.551Z,17.05
2019-02-22T01:55:22.898Z,17.27
2019-02-22T01:57:51.173Z,17.34
2019-02-22T02:00:19.448Z,17.03
2019-02-22T02:02:47.732Z,17.44
2019-02-22T02:05:16.005Z,16.95
2019-02-22T02:07:44.299Z,17.06
2019-02-22T02:10:12.559Z,16.66
2019-02-22T02:12:40.843Z,16.58
2019-02-22T02:15:09.184Z,17.37
2019-02-22T02:17:37.563Z,17.46
2019-02-22T02:20:07.309Z,17.19
2019-02-22T02:22:35.638Z,16.70
2019-02-22T02:25:04.380Z,16.92
2019-02-22T02:27:32.660Z,17.47
2019-02-22T02:30:00.977Z,17.00
2019-02-22T02:32:29.224Z,16.84
2019-02-22T02:34:57.516Z,17.10
2019-02-22T02:37:25.801Z,16.97
2019-02-22T02:39:54.063Z,16.73
2019-02-22T02:42:22.345Z,16.71
2019-02-22T02:44:50.609Z,16.89
2019-02-22T02:47:18.909Z,18.04
2019-02-22T02:49:47.175Z,17.06
2019-02-22T02:52:15.442Z,17.59
2019-02-22T02:54:43.722Z,18.01
2019-02-22T02:57:12.004Z,16.63
2019-02-22T02:59:40.278Z,16.78
2019-02-22T03:02:10.181Z,16.82
2019-02-22T03:04:38.455Z,16.46
2019-02-22T03:07:08.361Z,16.88
2019-02-22T03:09:36.637Z,16.69
2019-02-22T03:12:04.987Z,16.90
2019-02-22T03:14:33.281Z,17.92
2019-02-22T03:17:01.765Z,17.59
2019-02-22T03:19:30.046Z,16.96
2019-02-22T03:21:58.326Z,17.43
2019-02-22T03:24:26.615Z,16.70
2019-02-22T03:26:54.883Z,16.91
2019-02-22T03:29:23.194Z,16.40
2019-02-22T03:31:51.484Z,16.68
2019-02-22T03:34:19.755Z,16.42
2019-02-22T03:36:48.053Z,16.82
2019-02-22T03:39:16.324Z,16.58
2019-02-22T03:41:44.775Z,16.72
2019-02-22T03:44:13.046Z,17.02
2019-02-22T03:46:41.324Z,16.93
2019-02-22T03:49:09.587Z,16.41
2019-02-22T03:51:37.893Z,17.23
2019-02-22T03:54:06.158Z,16.73
2019-02-22T03:56:34.422Z,16.38
2019-02-22T03:59:02.678Z,16.77
2019-02-22T04:01:30.979Z,16.63
2019-02-22T04:03:59.256Z,16.99
2019-02-22T04:06:27.519Z,16.90
2019-02-22T04:08:55.800Z,19.20
2019-02-22T04:11:24.065Z,20.63
2019-02-22T04:13:52.402Z,17.16
2019-02-22T04:16:20.691Z,17.27
2019-02-22T04:18:48.967Z,17.14
2019-02-22T04:21:17.227Z,17.17
2019-02-22T04:23:45.559Z,17.47
2019-02-22T04:26:13.783Z,17.24
2019-02-22T04:28:42.050Z,22.41
2019-02-22T04:31:10.329Z,23.41
2019-02-22T04:33:38.791Z,23.62
2019-02-22T04:36:07.124Z,22.71
2019-02-22T04:38:35.344Z,23.40
2019-02-22T04:41:03.613Z,23.12
2019-02-22T04:43:31.902Z,23.86
2019-02-22T04:46:00.178Z,23.46
2019-02-22T04:48:28.552Z,18.49
2019-02-22T04:50:56.785Z,17.97
2019-02-22T04:53:25.064Z,18.43
2019-02-22T04:55:53.330Z,17.72
2019-02-22T04:58:21.581Z,17.16
2019-02-22T05:00:49.854Z,17.49
2019-02-22T05:03:18.126Z,17.39
2019-02-22T05:05:46.432Z,17.68
2019-02-22T05:08:14.700Z,17.48
2019-02-22T05:10:43.007Z,17.40
2019-02-22T05:13:11.378Z,17.36
2019-02-22T05:15:39.666Z,17.13
2019-02-22T05:18:07.940Z,17.44
2019-02-22T05:20:36.271Z,17.59
2019-02-22T05:23:07.445Z,17.73
2019-02-22T05:25:34.569Z,17.80
2019-02-22T05:28:02.904Z,17.32
2019-02-22T05:30:31.187Z,16.81
2019-02-22T05:32:59.466Z,17.17
2019-02-22T05:35:27.769Z,17.06
2019-02-22T05:37:56.064Z,17.38
2019-02-22T05:40:24.328Z,17.48
2019-02-22T05:42:52.628Z,16.96
2019-02-22T05:45:20.921Z,17.12
2019-02-22T05:47:49.207Z,17.00
2019-02-22T05:50:17.477Z,16.87
2019-02-22T05:52:45.795Z,17.14
2019-02-22T05:55:14.048Z,17.06
2019-02-22T05:57:42.324Z,16.93
2019-02-22T06:00:10.659Z,16.99
2019-02-22T06:02:38.962Z,17.33
2019-02-22T06:05:07.420Z,17.23
2019-02-22T06:07:35.717Z,16.91
2019-02-22T06:10:05.749Z,17.67
2019-02-22T06:12:35.048Z,17.66
2019-02-22T06:15:04.255Z,17.79
2019-02-22T06:17:32.553Z,17.29
2019-02-22T06:20:00.893Z,17.61
2019-02-22T06:22:30.060Z,17.93
2019-02-22T06:24:58.524Z,17.73
2019-02-22T06:27:26.817Z,17.82
2019-02-22T06:29:55.116Z,17.08
2019-02-22T06:32:23.404Z,17.25
2019-02-22T06:34:51.691Z,17.81
2019-02-22T06:37:19.987Z,17.91
2019-02-22T06:39:48.303Z,17.38
2019-02-22T06:42:16.586Z,17.27
2019-02-22T06:44:44.880Z,17.74
2019-02-22T06:47:13.341Z,17.32
2019-02-22T06:49:41.620Z,17.33
2019-02-22T06:52:09.887Z,17.30
2019-02-22T06:54:38.170Z,17.36
2019-02-22T06:57:06.460Z,17.45
2019-02-22T06:59:34.725Z,16.92
2019-02-22T07:02:03.024Z,17.56
2019-02-22T07:04:31.290Z,17.76
2019-02-22T07:06:59.567Z,18.08
2019-02-22T07:09:27.869Z,18.03
2019-02-22T07:12:03.481Z,17.17
2019-02-22T07:14:31.768Z,16.83
2019-02-22T07:17:00.040Z,16.91
2019-02-22T07:19:28.419Z,16.89
2019-02-22T07:21:56.699Z,17.06
2019-02-22T07:24:24.969Z,17.93
2019-02-22T07:26:53.250Z,17.56
2019-02-22T07:29:22.344Z,18.11
2019-02-22T07:31:50.799Z,17.87
2019-02-22T07:34:19.207Z,17.42
2019-02-22T07:36:47.489Z,17.74
2019-02-22T07:39:26.989Z,18.12
2019-02-22T07:41:45.765Z,17.75
2019-02-22T07:44:14.054Z,17.37
2019-02-22T07:46:42.320Z,17.58
2019-02-22T07:49:10.615Z,17.52
2019-02-22T07:51:38.896Z,17.85
2019-02-22T07:54:07.171Z,17.34
2019-02-22T07:56:35.457Z,17.63
2019-02-22T07:59:03.721Z,17.44
2019-02-22T08:01:32.017Z,17.73
2019-02-22T08:04:00.285Z,17.67
2019-02-22T08:06:28.617Z,17.62
2019-02-22T08:08:56.899Z,18.20
2019-02-22T08:11:25.192Z,18.44
2019-02-22T08:13:53.521Z,18.08
2019-02-22T08:16:21.786Z,18.16
2019-02-22T08:19:00.638Z,18.31
2019-02-22T08:21:20.081Z,18.46
2019-02-22T08:23:48.360Z,18.28
2019-02-22T08:26:16.667Z,18.52
2019-02-22T08:28:44.930Z,18.35
2019-02-22T08:31:13.265Z,17.49
2019-02-22T08:33:41.560Z,17.54
2019-02-22T08:36:09.837Z,18.51
2019-02-22T08:38:38.114Z,18.13
2019-02-22T08:41:06.401Z,18.08
2019-02-22T08:43:34.672Z,18.09
2019-02-22T08:46:02.992Z,18.26
2019-02-22T08:48:31.262Z,18.22
2019-02-22T08:50:59.542Z,18.70
2019-02-22T08:53:27.832Z,17.73
2019-02-22T08:55:56.106Z,18.01
2019-02-22T08:58:24.385Z,18.32
2019-02-22T09:00:52.669Z,19.16
2019-02-22T09:03:20.987Z,18.91
2019-02-22T09:05:49.253Z,19.02
2019-02-22T09:08:17.516Z,19.50
2019-02-22T09:10:45.807Z,18.90
2019-02-22T09:13:14.140Z,19.54
2019-02-22T09:15:42.359Z,18.99
2019-02-22T09:18:10.642Z,18.32
2019-02-22T09:20:38.923Z,18.70
2019-02-22T09:23:07.634Z,18.48
2019-02-22T09:25:36.052Z,19.03
2019-02-22T09:28:04.351Z,18.78
2019-02-22T09:30:32.714Z,18.75
2019-02-22T09:33:01.002Z,18.72
2019-02-22T09:35:29.279Z,18.77
2019-02-22T09:37:57.540Z,19.01
2019-02-22T09:40:25.817Z,19.82
2019-02-22T09:42:54.089Z,19.26
2019-02-22T09:45:24.459Z,19.23
2019-02-22T09:47:52.362Z,19.86
2019-02-22T09:50:20.640Z,19.51
2019-02-22T09:52:48.898Z,20.22
2019-02-22T09:55:17.162Z,20.04
2019-02-22T09:57:45.451Z,19.41
2019-02-22T10:00:16.703Z,19.87
2019-02-22T10:02:45.198Z,20.56
2019-02-22T10:05:13.582Z,20.08
2019-02-22T10:07:41.851Z,19.75
2019-02-22T10:10:10.932Z,20.24
2019-02-22T10:12:57.388Z,20.45
2019-02-22T10:15:31.433Z,20.23
2019-02-22T10:17:59.902Z,20.76
2019-02-22T10:20:28.160Z,20.68
2019-02-22T10:22:56.442Z,20.54
2019-02-22T10:25:24.743Z,20.70
2019-02-22T10:27:53.017Z,20.53
2019-02-22T10:30:21.357Z,21.25
2019-02-22T10:32:49.629Z,20.80
2019-02-22T10:35:17.904Z,19.94
2019-02-22T10:37:46.189Z,20.15
2019-02-22T10:40:14.466Z,19.70
2019-02-22T10:42:42.718Z,20.71
2019-02-22T10:45:11.493Z,20.88
2019-02-22T10:47:39.736Z,19.94
2019-02-22T10:50:09.362Z,19.70
2019-02-22T10:52:37.759Z,20.93
2019-02-22T10:55:08.529Z,21.41
2019-02-22T10:57:36.799Z,22.28
2019-02-22T11:00:08.559Z,22.10
2019-02-22T11:02:36.850Z,22.21
2019-02-22T11:05:05.497Z,22.09
2019-02-22T11:07:33.785Z,21.87
2019-02-22T11:10:02.080Z,21.12
2019-02-22T11:12:30.334Z,20.78
2019-02-22T11:14:58.644Z,20.94
2019-02-22T11:17:26.917Z,20.96
2019-02-22T11:19:55.187Z,21.35
2019-02-22T11:22:23.497Z,21.60
2019-02-22T11:24:51.765Z,21.20
2019-02-22T11:27:20.064Z,21.15
2019-02-22T11:29:49.448Z,21.54
2019-02-22T11:32:17.948Z,21.84
2019-02-22T11:34:46.301Z,21.74
2019-02-22T11:37:21.977Z,21.26
2019-02-22T11:39:50.438Z,21.11
2019-02-22T11:42:18.699Z,21.06
2019-02-22T11:44:46.995Z,20.49
2019-02-22T11:47:15.351Z,20.93
2019-02-22T11:49:43.635Z,20.96
2019-02-22T11:52:11.930Z,20.98
2019-02-22T11:54:40.186Z,20.14
2019-02-22T11:57:08.935Z,19.81
2019-02-22T11:59:37.288Z,19.92
2019-02-22T12:02:05.732Z,20.05
2019-02-22T12:04:33.994Z,19.53
2019-02-22T12:07:02.282Z,19.96
2019-02-22T12:09:30.546Z,19.78
2019-02-22T12:11:58.809Z,19.50
2019-02-22T12:14:27.100Z,19.15
2019-02-22T12:16:55.383Z,19.16
2019-02-22T12:19:23.713Z,19.70
2019-02-22T12:21:51.965Z,19.11
2019-02-22T12:24:20.248Z,19.58
2019-02-22T12:26:48.578Z,19.68
2019-02-22T12:29:16.791Z,19.56
2019-02-22T12:31:45.082Z,19.25
2019-02-22T12:34:13.430Z,19.62
2019-02-22T12:36:41.695Z,19.41
2019-02-22T12:39:09.961Z,19.58
2019-02-22T12:41:38.269Z,19.39
2019-02-22T12:44:06.539Z,19.29
2019-02-22T12:46:34.814Z,19.38
2019-02-22T12:49:03.120Z,19.43
2019-02-22T12:51:31.422Z,19.84
2019-02-22T12:53:59.715Z,19.60
2019-02-22T12:56:56.016Z,19.66
2019-02-22T12:58:58.008Z,19.97
2019-02-22T13:01:26.300Z,19.90
2019-02-22T13:03:54.573Z,20.10
2019-02-22T13:06:22.855Z,20.24
2019-02-22T13:08:51.113Z,20.35
2019-02-22T13:11:19.395Z,20.21
2019-02-22T13:13:47.673Z,19.88
2019-02-22T13:16:15.957Z,19.75
2019-02-22T13:18:44.313Z,20.19
2019-02-22T13:21:12.595Z,20.55
2019-02-22T13:23:40.861Z,19.85
2019-02-22T13:26:09.156Z,19.98
2019-02-22T13:28:37.434Z,20.36
2019-02-22T13:31:05.709Z,20.84
2019-02-22T13:33:33.997Z,20.81
2019-02-22T13:36:02.282Z,20.96
2019-02-22T13:38:30.564Z,20.63
2019-02-22T13:40:58.858Z,20.68
2019-02-22T13:43:27.123Z,20.50
2019-02-22T13:45:55.490Z,20.56
2019-02-22T13:48:23.771Z,19.27
2019-02-22T13:50:52.119Z,19.67
2019-02-22T13:53:20.477Z,19.89
2019-02-22T13:55:48.757Z,20.29
2019-02-22T13:58:18.690Z,20.16
2019-02-22T14:00:47.071Z,20.02
2019-02-22T14:03:15.352Z,19.83
2019-02-22T14:05:43.653Z,20.85
2019-02-22T14:08:11.949Z,20.06
2019-02-22T14:10:40.225Z,20.48
2019-02-22T14:13:08.495Z,20.38
2019-02-22T14:15:38.344Z,20.24
2019-02-22T14:18:09.457Z,20.68
2019-02-22T14:20:38.939Z,20.80
2019-02-22T14:23:09.606Z,20.35
2019-02-22T14:25:37.954Z,20.57
2019-02-22T14:28:06.216Z,20.70
2019-02-22T14:30:34.509Z,20.31
2019-02-22T14:33:04.385Z,20.55
2019-02-22T14:35:32.625Z,20.36
2019-02-22T14:38:02.041Z,20.46
2019-02-22T14:40:33.562Z,20.47
2019-02-22T14:43:01.833Z,20.14
2019-02-22T14:45:30.114Z,19.98
2019-02-22T14:47:58.388Z,19.72
2019-02-22T14:50:26.717Z,20.03
2019-02-22T14:52:55.003Z,20.25
2019-02-22T14:55:23.301Z,19.90
2019-02-22T14:57:51.577Z,20.28
2019-02-22T15:00:20.596Z,20.37
2019-02-22T15:02:48.887Z,20.73
2019-02-22T15:05:17.179Z,20.96
2019-02-22T15:07:45.441Z,20.51
2019-02-22T15:10:13.779Z,20.74
2019-02-22T15:12:42.141Z,21.02
2019-02-22T15:15:15.689Z,20.63
2019-02-22T15:17:48.647Z,20.92
2019-02-22T15:20:16.935Z,20.46
2019-02-22T15:22:45.210Z,20.27
2019-02-22T15:25:15.441Z,19.61
2019-02-22T15:27:43.786Z,20.00
2019-02-22T15:30:14.514Z,19.37
2019-02-22T15:32:42.802Z,19.51
2019-02-22T15:35:13.416Z,19.85
2019-02-22T15:37:43.335Z,19.73
2019-02-22T15:40:12.371Z,19.71
2019-02-22T15:42:40.775Z,19.10
2019-02-22T15:45:11.255Z,19.04
2019-02-22T15:47:39.555Z,19.34
2019-02-22T15:50:18.575Z,23.61
2019-02-22T15:52:48.221Z,24.00
2019-02-22T15:55:16.684Z,23.88
2019-02-22T15:57:44.978Z,23.83
2019-02-22T16:00:22.332Z,24.57
2019-02-22T16:02:50.744Z,24.92
2019-02-22T16:05:20.735Z,25.25
2019-02-22T16:07:49.149Z,25.72
2019-02-22T16:10:17.528Z,24.90
2019-02-22T16:12:45.885Z,24.49
2019-02-22T16:15:15.985Z,24.26
2019-02-22T16:17:44.259Z,24.49
2019-02-22T16:20:12.818Z,25.07
2019-02-22T16:22:41.091Z,24.95
2019-02-22T16:25:19.189Z,25.09
2019-02-22T16:27:39.558Z,25.14
2019-02-22T16:30:16.792Z,24.40
2019-02-22T16:32:45.174Z,24.86
2019-02-22T16:35:13.723Z,24.81
2019-02-22T16:37:42.013Z,24.73
2019-02-22T16:40:11.412Z,23.45
2019-02-22T16:42:39.665Z,24.42
2019-02-22T16:45:12.696Z,24.42
2019-02-22T16:47:40.955Z,24.46
2019-02-22T16:50:14.066Z,24.84
2019-02-22T16:52:45.013Z,24.77
2019-02-22T16:55:14.871Z,24.55
2019-02-22T16:57:43.120Z,23.93
2019-02-22T17:00:13.531Z,23.93
2019-02-22T17:02:41.800Z,24.33
2019-02-22T17:05:12.424Z,23.66
2019-02-22T17:07:40.718Z,23.55
2019-02-22T17:10:10.714Z,23.55
2019-02-22T17:12:39.059Z,23.77
2019-02-22T17:15:09.958Z,24.62
2019-02-22T17:17:38.258Z,24.66
2019-02-22T17:20:08.865Z,24.63
2019-02-22T17:22:37.154Z,24.49
2019-02-22T17:25:08.632Z,24.97
2019-02-22T17:27:36.893Z,24.62
2019-02-22T17:30:11.023Z,24.76
2019-02-22T17:32:40.137Z,23.90
2019-02-22T17:35:08.497Z,23.77
2019-02-22T17:37:36.803Z,24.18
2019-02-22T17:40:13.582Z,24.69
2019-02-22T17:42:41.928Z,24.94
2019-02-22T17:45:10.286Z,24.21
2019-02-22T17:47:38.557Z,24.06
2019-02-22T17:50:09.081Z,24.31
2019-02-22T17:52:37.428Z,24.26
2019-02-22T17:55:08.239Z,23.34
2019-02-22T17:57:36.530Z,23.92
2019-02-22T18:00:12.151Z,23.60
2019-02-22T18:02:40.425Z,23.87
2019-02-22T18:05:08.700Z,23.86
2019-02-22T18:07:36.997Z,23.54
2019-02-22T18:10:07.930Z,23.53
2019-02-22T18:12:36.220Z,23.39
2019-02-22T18:15:06.739Z,22.88
2019-02-22T18:17:35.011Z,22.79
2019-02-22T18:20:03.725Z,23.82
2019-02-22T18:22:32.009Z,23.24
2019-02-22T18:25:00.396Z,23.12
2019-02-22T18:27:28.617Z,24.11
2019-02-22T18:29:56.874Z,24.02
2019-02-22T18:32:25.153Z,23.18
2019-02-22T18:34:53.408Z,23.48
2019-02-22T18:37:21.708Z,23.48
2019-02-22T18:39:49.968Z,23.82
2019-02-22T18:42:18.321Z,22.87
2019-02-22T18:44:46.608Z,22.98
2019-02-22T18:47:19.782Z,23.38
2019-02-22T18:49:48.078Z,22.58
2019-02-22T18:52:16.317Z,23.24
2019-02-22T18:54:46.304Z,23.22
2019-02-22T18:57:14.659Z,22.90
2019-02-22T18:59:42.999Z,23.15
2019-02-22T19:02:11.288Z,23.70
2019-02-22T19:04:39.554Z,23.38
2019-02-22T19:07:07.831Z,22.64
2019-02-22T19:09:36.100Z,22.61
2019-02-22T19:12:04.447Z,22.80
2019-02-22T19:14:32.744Z,21.94
2019-02-22T19:17:01.023Z,23.18
2019-02-22T19:19:29.284Z,21.71
2019-02-22T19:21:57.546Z,22.84
2019-02-22T19:24:25.901Z,21.34
2019-02-22T19:26:56.934Z,21.34
2019-02-22T19:29:27.090Z,21.33
2019-02-22T19:31:55.376Z,21.67
2019-02-22T19:34:23.651Z,21.93
2019-02-22T19:36:51.943Z,21.77
2019-02-22T19:39:20.205Z,21.87
2019-02-22T19:41:48.468Z,21.56
2019-02-22T19:44:16.769Z,21.71
2019-02-22T19:46:45.032Z,21.58
2019-02-22T19:49:13.314Z,21.62
2019-02-22T19:51:41.609Z,21.52
2019-02-22T19:54:09.896Z,21.76
2019-02-22T19:56:38.200Z,21.83
2019-02-22T19:59:06.477Z,21.65
2019-02-22T20:01:34.757Z,21.88
2019-02-22T20:04:03.021Z,20.89
2019-02-22T20:06:31.296Z,21.95
2019-02-22T20:08:59.591Z,22.02
2019-02-22T20:11:27.866Z,21.57
2019-02-22T20:13:56.132Z,22.01
2019-02-22T20:16:24.424Z,20.91
2019-02-22T20:18:52.713Z,20.96
2019-02-22T20:21:20.984Z,21.76
2019-02-22T20:23:49.292Z,20.30
2019-02-22T20:26:17.567Z,21.20
2019-02-22T20:28:45.861Z,21.05
2019-02-22T20:31:20.233Z,21.74
2019-02-22T20:33:44.225Z,21.27
2019-02-22T20:36:12.489Z,21.26
2019-02-22T20:38:40.814Z,21.57
2019-02-22T20:41:09.112Z,21.31
2019-02-22T20:43:37.490Z,21.03
2019-02-22T20:46:05.852Z,20.63
2019-02-22T20:48:34.154Z,20.73
2019-02-22T20:51:02.407Z,21.33
2019-02-22T20:53:30.671Z,21.17
2019-02-22T20:55:58.960Z,20.88
2019-02-22T20:58:27.249Z,21.24
2019-02-22T21:00:55.526Z,21.41
2019-02-22T21:03:23.803Z,21.42
2019-02-22T21:05:52.107Z,21.57
2019-02-22T21:08:20.445Z,21.51
2019-02-22T21:10:48.735Z,21.13
2019-02-22T21:13:16.999Z,20.94
2019-02-22T21:15:45.298Z,21.32
2019-02-22T21:18:16.532Z,20.76
2019-02-22T21:20:43.645Z,20.91
2019-02-22T21:23:12.005Z,20.82
2019-02-22T21:25:40.302Z,21.17
2019-02-22T21:28:08.576Z,21.33
2019-02-22T21:30:36.975Z,21.09
2019-02-22T21:33:06.920Z,20.39
2019-02-22T21:35:35.201Z,20.25
2019-02-22T21:38:03.465Z,20.37
2019-02-22T21:40:31.744Z,20.28
2019-02-22T21:43:00.002Z,20.99
2019-02-22T21:45:28.346Z,20.81
2019-02-22T21:47:56.623Z,20.66
2019-02-22T21:50:24.903Z,20.36
2019-02-22T21:52:53.182Z,20.20
2019-02-22T21:55:21.470Z,19.73
2019-02-22T21:57:49.737Z,19.83
2019-02-22T22:00:20.932Z,19.59
2019-02-22T22:02:49.205Z,19.72
2019-02-22T22:05:17.495Z,19.53
2019-02-22T22:07:45.795Z,19.36
2019-02-22T22:10:14.055Z,19.68
2019-02-22T22:12:42.346Z,20.19
2019-02-22T22:15:12.825Z,19.98
2019-02-22T22:17:41.092Z,19.96
2019-02-22T22:20:10.212Z,20.13
2019-02-22T22:22:38.549Z,20.20
2019-02-22T22:25:14.901Z,20.26
2019-02-22T22:27:43.185Z,20.20
2019-02-22T22:30:13.267Z,20.19
2019-02-22T22:32:41.530Z,20.28
2019-02-22T22:35:13.989Z,19.96
2019-02-22T22:37:42.319Z,19.99
2019-02-22T22:40:11.170Z,19.73
2019-02-22T22:42:39.450Z,20.02
2019-02-22T22:45:12.981Z,19.76
2019-02-22T22:47:41.347Z,20.02
2019-02-22T22:50:14.286Z,19.92
2019-02-22T22:52:42.575Z,19.92
2019-02-22T22:55:11.326Z,19.71
2019-02-22T22:57:39.658Z,19.61
2019-02-22T23:00:20.979Z,19.56
2019-02-22T23:02:49.264Z,19.76
2019-02-22T23:05:17.576Z,19.95
2019-02-22T23:07:45.918Z,20.18
2019-02-22T23:10:15.919Z,20.43
2019-02-22T23:12:44.356Z,19.83
2019-02-22T23:15:13.055Z,20.20
2019-02-22T23:17:41.319Z,20.42
2019-02-22T23:20:09.643Z,20.28
2019-02-22T23:22:37.946Z,20.49
2019-02-22T23:25:06.283Z,20.11
2019-02-22T23:27:34.544Z,20.34
2019-02-22T23:30:02.889Z,20.16
2019-02-22T23:32:31.176Z,19.62
2019-02-22T23:34:59.469Z,19.89
2019-02-22T23:37:27.818Z,19.71
2019-02-22T23:39:56.110Z,19.93
2019-02-22T23:42:24.379Z,19.67
2019-02-22T23:44:52.726Z,20.19
2019-02-22T23:47:20.997Z,19.72
2019-02-22T23:49:49.276Z,20.01
2019-02-22T23:52:17.538Z,19.66
2019-02-22T23:54:45.800Z,18.99
2019-02-22T23:57:14.098Z,20.06
2019-02-22T23:59:42.379Z,20.36
